Time;durP1;ratioP1;P1;durP2;ratioP2;P2;SDS_P1;SDS_P2;PMS_P1;PMS_P2;Temp;Humidity;BMP_temperature;BMP_pressure;BME280_temperature;BME280_humidity;BME280_pressure;Samples;Min_cycle;Max_cycle;Signal;HPM_P1;HPM_P2
2023/12/20 00:01:58;;;;;;;65.00;26.58;;;7.10;99.90;;;;;;5034070;28;20049;-74
2023/12/20 00:04:25;;;;;;;60.38;28.05;;;7.10;99.90;;;;;;5026978;28;20049;-74
2023/12/20 00:06:52;;;;;;;53.60;22.25;;;7.10;99.90;;;;;;5013951;28;20043;-75
2023/12/20 00:09:19;;;;;;;58.75;25.10;;;7.00;99.90;;;;;;5026292;28;20048;-74
2023/12/20 00:11:46;;;;;;;54.10;23.08;;;7.00;99.90;;;;;;5014948;28;20720;-74
2023/12/20 00:14:12;;;;;;;54.22;23.48;;;7.00;99.90;;;;;;5032584;28;20137;-73
2023/12/20 00:16:39;;;;;;;61.10;25.80;;;7.00;99.90;;;;;;5024412;28;20063;-74
2023/12/20 00:19:06;;;;;;;49.63;23.52;;;7.00;99.90;;;;;;5028048;28;20041;-73
2023/12/20 00:21:34;;;;;;;50.60;21.83;;;7.00;99.90;;;;;;5022560;28;20045;-75
2023/12/20 00:24:01;;;;;;;42.67;20.52;;;6.90;99.90;;;;;;5028392;28;20124;-74
2023/12/20 00:26:28;;;;;;;44.83;18.75;;;6.80;99.90;;;;;;5022822;28;20124;-74
2023/12/20 00:28:55;;;;;;;40.97;16.67;;;6.80;99.90;;;;;;5030152;28;20552;-74
2023/12/20 00:31:22;;;;;;;43.38;20.38;;;6.70;99.90;;;;;;5026683;28;20057;-73
2023/12/20 00:33:49;;;;;;;41.38;15.38;;;6.70;99.90;;;;;;5018686;28;20044;-74
2023/12/20 00:36:16;;;;;;;36.10;15.85;;;6.70;99.90;;;;;;5012106;28;20049;-74
2023/12/20 00:38:42;;;;;;;31.27;13.65;;;6.60;99.90;;;;;;5028268;28;20557;-74
2023/12/20 00:41:09;;;;;;;40.38;15.52;;;6.60;99.90;;;;;;5022505;28;20048;-73
2023/12/20 00:43:36;;;;;;;29.23;13.75;;;6.50;99.90;;;;;;5023077;28;20051;-75
2023/12/20 00:46:03;;;;;;;31.85;12.98;;;6.60;99.90;;;;;;5028776;28;20052;-72
2023/12/20 00:48:31;;;;;;;29.48;14.10;;;6.50;99.90;;;;;;5026380;28;20065;-74
2023/12/20 00:50:58;;;;;;;33.13;14.82;;;6.50;99.90;;;;;;5015628;28;20056;-72
2023/12/20 00:53:24;;;;;;;30.05;14.50;;;6.50;99.90;;;;;;5028096;28;20098;-72
2023/12/20 00:55:51;;;;;;;29.98;12.93;;;6.50;99.90;;;;;;5026723;28;20040;-73
2023/12/20 00:58:18;;;;;;;31.30;15.68;;;6.50;99.90;;;;;;5030949;28;20080;-73
2023/12/20 01:00:45;;;;;;;32.75;15.23;;;6.50;99.90;;;;;;5028825;28;21267;-74
2023/12/20 01:03:12;;;;;;;37.60;17.50;;;6.50;99.90;;;;;;5030340;28;20527;-73
2023/12/20 01:05:39;;;;;;;36.50;16.83;;;6.50;99.90;;;;;;5005226;28;20037;-71
2023/12/20 01:08:06;;;;;;;37.00;16.23;;;6.50;99.90;;;;;;5031546;28;20084;-73
2023/12/20 01:10:33;;;;;;;32.20;15.98;;;6.50;99.90;;;;;;5025332;28;20045;-74
2023/12/20 01:12:59;;;;;;;34.78;15.25;;;6.50;99.90;;;;;;5032094;28;20057;-72
2023/12/20 01:15:26;;;;;;;29.65;14.40;;;6.50;99.90;;;;;;5025186;28;20530;-73
2023/12/20 01:17:53;;;;;;;26.90;14.18;;;6.50;99.90;;;;;;5032184;28;20071;-73
2023/12/20 01:20:20;;;;;;;31.60;14.60;;;6.40;99.90;;;;;;5023958;28;20535;-72
2023/12/20 01:22:47;;;;;;;27.90;13.43;;;6.40;99.90;;;;;;5024202;28;20044;-74
2023/12/20 01:25:14;;;;;;;28.30;12.90;;;6.40;99.90;;;;;;5023017;28;20065;-73
2023/12/20 01:27:41;;;;;;;27.77;12.80;;;6.40;99.90;;;;;;5029967;28;20053;-72
2023/12/20 01:30:08;;;;;;;21.80;11.45;;;6.30;99.90;;;;;;5012720;28;20106;-73
2023/12/20 01:32:35;;;;;;;26.23;12.75;;;6.30;99.90;;;;;;5009081;28;20050;-74
2023/12/20 01:35:02;;;;;;;33.38;11.60;;;6.30;99.90;;;;;;5006895;28;20061;-73
2023/12/20 01:37:29;;;;;;;24.92;11.25;;;6.30;99.90;;;;;;5005502;28;20044;-72
2023/12/20 01:39:56;;;;;;;18.88;9.40;;;6.30;99.90;;;;;;5035118;28;20045;-72
2023/12/20 01:42:23;;;;;;;31.05;10.80;;;6.30;99.90;;;;;;5019100;28;20046;-73
2023/12/20 01:44:50;;;;;;;22.67;10.15;;;6.30;99.90;;;;;;5008164;28;20051;-73
2023/12/20 01:47:17;;;;;;;20.00;10.15;;;6.20;99.90;;;;;;5009191;28;20568;-72
2023/12/20 01:49:44;;;;;;;19.95;9.40;;;6.20;99.90;;;;;;5027213;28;21434;-74
2023/12/20 01:52:11;;;;;;;24.10;10.35;;;6.10;99.90;;;;;;5027916;28;20526;-72
2023/12/20 01:54:41;;;;;;;28.80;10.35;;;6.20;99.90;;;;;;5019261;28;20041;-74
2023/12/20 01:57:08;;;;;;;21.25;10.70;;;6.20;99.90;;;;;;5024893;28;20044;-72
2023/12/20 01:59:35;;;;;;;24.98;11.05;;;6.20;99.90;;;;;;5028841;28;20049;-73
2023/12/20 02:02:03;;;;;;;31.75;12.85;;;6.30;99.90;;;;;;5010955;28;20041;-75
2023/12/20 02:04:30;;;;;;;25.90;11.05;;;6.20;99.90;;;;;;5005181;28;20132;-73
2023/12/20 02:06:59;;;;;;;25.83;11.18;;;6.20;99.90;;;;;;5024953;28;20561;-74
2023/12/20 02:09:27;;;;;;;28.42;11.98;;;6.30;99.90;;;;;;5021401;28;20052;-73
2023/12/20 02:11:54;;;;;;;29.85;11.73;;;6.20;99.90;;;;;;5026707;28;20062;-73
2023/12/20 02:14:21;;;;;;;30.20;12.35;;;6.20;99.90;;;;;;5023320;28;20053;-73
2023/12/20 02:16:48;;;;;;;36.53;15.25;;;6.20;99.90;;;;;;5024051;28;20037;-74
2023/12/20 02:19:17;;;;;;;32.47;14.70;;;6.20;99.90;;;;;;5023711;28;20072;-72
2023/12/20 02:21:44;;;;;;;32.33;15.40;;;6.20;99.90;;;;;;5018269;28;20037;-73
2023/12/20 02:24:11;;;;;;;31.88;15.73;;;6.20;99.90;;;;;;5006701;28;20037;-73
2023/12/20 02:26:38;;;;;;;23.83;13.40;;;6.10;99.90;;;;;;5023182;28;20045;-74
2023/12/20 02:29:05;;;;;;;24.85;10.68;;;6.10;99.90;;;;;;5018480;28;20094;-73
2023/12/20 02:31:32;;;;;;;27.40;11.38;;;6.10;99.90;;;;;;5020944;28;20052;-72
2023/12/20 02:34:00;;;;;;;26.02;11.90;;;6.10;99.90;;;;;;5016272;28;20560;-73
2023/12/20 02:36:27;;;;;;;30.50;12.77;;;6.10;99.90;;;;;;5019492;28;20055;-72
2023/12/20 02:38:53;;;;;;;29.70;14.48;;;6.10;99.90;;;;;;5012230;28;20048;-73
2023/12/20 02:41:20;;;;;;;28.50;13.52;;;6.00;99.90;;;;;;5025918;28;20064;-73
2023/12/20 02:43:47;;;;;;;26.73;13.20;;;6.00;99.90;;;;;;5022074;28;20076;-74
2023/12/20 02:46:16;;;;;;;24.33;12.77;;;6.00;99.90;;;;;;5025308;28;20520;-72
2023/12/20 02:48:44;;;;;;;26.35;10.77;;;6.00;99.90;;;;;;5009465;28;20053;-73
2023/12/20 02:51:10;;;;;;;23.80;11.32;;;6.00;99.90;;;;;;5025079;28;20056;-73
2023/12/20 02:53:37;;;;;;;26.60;10.15;;;6.00;99.90;;;;;;5029280;28;20073;-72
2023/12/20 02:56:04;;;;;;;27.42;11.50;;;6.00;99.90;;;;;;5031402;28;20091;-74
2023/12/20 02:58:31;;;;;;;31.70;11.35;;;6.00;99.90;;;;;;5027110;28;20099;-74
2023/12/20 03:00:58;;;;;;;28.00;10.63;;;6.00;99.90;;;;;;5030459;28;20176;-73
2023/12/20 03:03:25;;;;;;;24.20;11.27;;;5.90;99.90;;;;;;5023410;28;20055;-75
2023/12/20 03:05:52;;;;;;;28.48;10.02;;;5.90;99.90;;;;;;5029301;28;20057;-74
2023/12/20 03:08:18;;;;;;;27.77;10.27;;;5.80;99.90;;;;;;5014196;28;20136;-73
2023/12/20 03:10:45;;;;;;;23.88;8.82;;;5.80;99.90;;;;;;5020392;28;20088;-74
2023/12/20 03:13:12;;;;;;;25.77;10.02;;;5.80;99.90;;;;;;5030931;28;20139;-73
2023/12/20 03:15:39;;;;;;;20.85;9.43;;;5.80;99.90;;;;;;5006277;28;20044;-73
2023/12/20 03:18:06;;;;;;;24.10;10.23;;;5.80;99.90;;;;;;5032023;28;20654;-74
2023/12/20 03:20:34;;;;;;;29.13;10.82;;;5.80;99.90;;;;;;5019417;28;21185;-72
2023/12/20 03:23:01;;;;;;;24.92;11.20;;;5.80;99.90;;;;;;5029580;28;20041;-72
2023/12/20 03:25:27;;;;;;;28.38;12.23;;;5.80;99.90;;;;;;5007180;28;20049;-74
2023/12/20 03:27:54;;;;;;;32.55;12.65;;;5.70;99.90;;;;;;5026561;28;20460;-74
2023/12/20 03:30:21;;;;;;;27.33;13.40;;;5.80;99.90;;;;;;5026485;28;20052;-74
2023/12/20 03:32:48;;;;;;;26.90;12.88;;;5.70;99.90;;;;;;5005160;28;20128;-73
2023/12/20 03:35:15;;;;;;;35.75;14.88;;;5.70;99.90;;;;;;5013728;28;20049;-72
2023/12/20 03:37:42;;;;;;;30.83;14.52;;;5.80;99.90;;;;;;5048201;28;20052;-72
2023/12/20 03:40:10;;;;;;;34.92;15.32;;;5.80;99.90;;;;;;5029290;28;20044;-73
2023/12/20 03:42:37;;;;;;;34.55;15.40;;;5.80;99.90;;;;;;5017782;28;20056;-75
2023/12/20 03:45:04;;;;;;;35.08;14.38;;;5.80;99.90;;;;;;5029062;28;20052;-74
2023/12/20 03:47:30;;;;;;;37.42;15.02;;;5.70;99.90;;;;;;5024584;28;20609;-73
2023/12/20 03:49:57;;;;;;;30.27;14.98;;;5.80;99.90;;;;;;5029127;28;20041;-71
2023/12/20 03:52:24;;;;;;;34.63;15.45;;;5.70;99.90;;;;;;5028820;28;20049;-74
2023/12/20 03:54:51;;;;;;;33.90;14.80;;;5.80;99.90;;;;;;5009134;28;20216;-74
2023/12/20 03:57:18;;;;;;;38.05;15.18;;;5.70;99.90;;;;;;5008899;28;20126;-73
2023/12/20 03:59:44;;;;;;;41.65;14.55;;;5.70;99.90;;;;;;5011522;28;20047;-73
2023/12/20 04:02:11;;;;;;;31.85;14.55;;;5.70;99.90;;;;;;5011906;28;20517;-73
2023/12/20 04:04:38;;;;;;;35.65;15.50;;;5.70;99.90;;;;;;5011912;28;20068;-73
2023/12/20 04:07:05;;;;;;;38.88;14.68;;;5.70;99.90;;;;;;5026725;28;20041;-74
2023/12/20 04:09:31;;;;;;;33.00;14.07;;;5.70;99.90;;;;;;5012876;28;20049;-72
2023/12/20 04:11:58;;;;;;;39.08;14.70;;;5.70;99.90;;;;;;5026177;28;20043;-74
2023/12/20 04:14:25;;;;;;;33.45;14.43;;;5.70;99.90;;;;;;5029921;28;20144;-73
2023/12/20 04:16:52;;;;;;;31.88;13.82;;;5.70;99.90;;;;;;5028647;28;21564;-73
2023/12/20 04:19:19;;;;;;;38.75;14.88;;;5.70;99.90;;;;;;5012739;28;20045;-74
2023/12/20 04:21:46;;;;;;;26.40;11.23;;;5.70;99.90;;;;;;5022398;28;20190;-73
2023/12/20 04:24:13;;;;;;;38.22;13.07;;;5.60;99.90;;;;;;5009258;28;20128;-72
2023/12/20 04:26:39;;;;;;;29.70;12.35;;;5.60;99.90;;;;;;5028491;28;20057;-73
2023/12/20 04:29:06;;;;;;;30.85;12.48;;;5.60;99.90;;;;;;5015959;28;20138;-72
2023/12/20 04:31:33;;;;;;;39.72;15.27;;;5.60;99.90;;;;;;5025532;28;20504;-72
2023/12/20 04:34:00;;;;;;;34.38;12.82;;;5.60;99.90;;;;;;5026239;28;20129;-73
2023/12/20 04:36:27;;;;;;;37.42;15.27;;;5.60;99.90;;;;;;5006167;28;20193;-75
2023/12/20 04:38:54;;;;;;;38.80;14.13;;;5.60;99.90;;;;;;5021705;28;20704;-74
2023/12/20 04:41:22;;;;;;;37.53;15.90;;;5.60;99.90;;;;;;5023945;28;20045;-72
2023/12/20 04:43:50;;;;;;;36.15;14.35;;;5.60;99.90;;;;;;5013374;28;20115;-74
2023/12/20 04:46:17;;;;;;;29.70;14.23;;;5.60;99.90;;;;;;5025844;28;20048;-73
2023/12/20 04:48:44;;;;;;;36.80;14.63;;;5.60;99.90;;;;;;5020305;28;20044;-73
2023/12/20 04:51:11;;;;;;;35.08;12.48;;;5.60;99.90;;;;;;5024705;28;20685;-73
2023/12/20 04:53:38;;;;;;;26.65;12.38;;;5.60;99.90;;;;;;5024094;28;20119;-72
2023/12/20 04:56:05;;;;;;;35.17;11.82;;;5.50;99.90;;;;;;5023272;28;20130;-72
2023/12/20 04:58:32;;;;;;;34.67;13.45;;;5.50;99.90;;;;;;5026190;28;20044;-74
2023/12/20 05:00:59;;;;;;;27.90;12.15;;;5.50;99.90;;;;;;5025757;28;20049;-73
2023/12/20 05:03:26;;;;;;;39.95;13.20;;;5.50;99.90;;;;;;5012190;28;20103;-73
2023/12/20 05:05:53;;;;;;;33.38;12.70;;;5.50;99.90;;;;;;5007100;28;20044;-73
2023/12/20 05:08:20;;;;;;;34.83;11.85;;;5.50;99.90;;;;;;5025546;28;20053;-73
2023/12/20 05:10:47;;;;;;;29.85;12.77;;;5.50;99.90;;;;;;5026978;28;20040;-73
2023/12/20 05:13:14;;;;;;;29.67;10.93;;;5.60;99.90;;;;;;5016469;28;20056;-74
2023/12/20 05:15:41;;;;;;;41.78;14.30;;;5.50;99.90;;;;;;5002507;28;20048;-73
2023/12/20 05:18:08;;;;;;;45.50;14.68;;;5.50;99.90;;;;;;5025736;28;20033;-73
2023/12/20 05:20:35;;;;;;;34.45;14.27;;;5.50;99.90;;;;;;5016773;28;20053;-74
2023/12/20 05:23:02;;;;;;;52.90;14.20;;;5.50;99.90;;;;;;5011858;28;20041;-73
2023/12/20 05:25:28;;;;;;;28.83;13.30;;;5.50;99.90;;;;;;5027016;28;20052;-76
2023/12/20 05:27:56;;;;;;;33.13;12.30;;;5.50;99.90;;;;;;5010736;28;20052;-74
2023/12/20 05:30:23;;;;;;;31.65;13.65;;;5.50;99.90;;;;;;5026401;28;20037;-75
2023/12/20 05:32:50;;;;;;;39.72;14.98;;;5.50;99.90;;;;;;5011523;28;20049;-73
2023/12/20 05:35:17;;;;;;;26.27;12.73;;;5.50;99.90;;;;;;5009685;28;20080;-73
2023/12/20 05:37:44;;;;;;;34.17;14.32;;;5.50;99.90;;;;;;5025257;28;20119;-72
2023/12/20 05:40:12;;;;;;;33.50;12.75;;;5.60;99.90;;;;;;5028342;28;20045;-72
2023/12/20 05:42:38;;;;;;;38.35;14.15;;;5.50;99.90;;;;;;5007165;28;20057;-74
2023/12/20 05:45:06;;;;;;;39.50;15.02;;;5.50;99.90;;;;;;5028981;28;20048;-74
2023/12/20 05:47:33;;;;;;;43.17;16.15;;;5.50;99.90;;;;;;5011330;28;20059;-73
2023/12/20 05:50:00;;;;;;;33.75;15.73;;;5.50;99.90;;;;;;5026393;28;20076;-73
2023/12/20 05:52:27;;;;;;;31.70;13.05;;;5.50;99.90;;;;;;5022197;28;20144;-74
2023/12/20 05:54:53;;;;;;;44.13;16.95;;;5.50;99.90;;;;;;5022934;28;20799;-74
2023/12/20 05:57:20;;;;;;;35.58;15.77;;;5.50;99.90;;;;;;5021705;28;20056;-72
2023/12/20 05:59:47;;;;;;;37.22;15.88;;;5.50;99.90;;;;;;5020832;28;20134;-73
2023/12/20 06:02:14;;;;;;;41.90;17.88;;;5.50;99.90;;;;;;5023603;28;20069;-72
2023/12/20 06:04:43;;;;;;;35.28;16.48;;;5.50;99.90;;;;;;5021823;28;20138;-72
2023/12/20 06:07:13;;;;;;;40.80;17.20;;;5.50;99.90;;;;;;5028700;28;20045;-72
2023/12/20 06:09:40;;;;;;;43.85;15.52;;;5.50;99.90;;;;;;5008707;28;20083;-73
2023/12/20 06:12:08;;;;;;;44.35;17.13;;;5.50;99.90;;;;;;5023422;28;20040;-73
2023/12/20 06:14:35;;;;;;;46.58;15.20;;;5.40;99.90;;;;;;5019775;28;20061;-72
2023/12/20 06:17:02;;;;;;;40.60;16.15;;;5.50;99.90;;;;;;5023838;28;20462;-73
2023/12/20 06:19:29;;;;;;;36.60;17.00;;;5.40;99.90;;;;;;5020238;28;20056;-72
2023/12/20 06:21:56;;;;;;;38.47;16.45;;;5.40;99.90;;;;;;5016361;28;20041;-74
2023/12/20 06:24:27;;;;;;;32.88;14.82;;;5.40;99.90;;;;;;5016428;28;20152;-72
2023/12/20 06:26:55;;;;;;;58.25;19.77;;;5.40;99.90;;;;;;5019393;28;20082;-74
2023/12/20 06:29:22;;;;;;;52.10;20.40;;;5.40;99.90;;;;;;5026783;28;20045;-74
2023/12/20 06:31:49;;;;;;;42.40;18.88;;;5.40;99.90;;;;;;5020649;28;20825;-73
2023/12/20 06:34:15;;;;;;;48.25;19.38;;;5.40;99.90;;;;;;5012636;28;20540;-73
2023/12/20 06:36:42;;;;;;;48.67;20.00;;;5.40;99.90;;;;;;5026060;28;20126;-72
2023/12/20 06:39:12;;;;;;;43.72;19.33;;;5.40;99.90;;;;;;5014931;28;20046;-72
2023/12/20 06:41:39;;;;;;;53.20;21.58;;;5.40;99.90;;;;;;5016193;28;20700;-73
2023/12/20 06:44:06;;;;;;;51.60;22.23;;;5.40;99.90;;;;;;5023370;28;20607;-73
2023/12/20 06:46:33;;;;;;;55.50;20.60;;;5.40;99.90;;;;;;5024473;28;20042;-71
2023/12/20 06:48:59;;;;;;;40.22;18.90;;;5.40;99.90;;;;;;5026045;28;20045;-72
2023/12/20 06:51:27;;;;;;;50.42;21.15;;;5.40;99.90;;;;;;5024629;28;20087;-72
2023/12/20 06:53:54;;;;;;;57.08;21.73;;;5.30;99.90;;;;;;5024114;28;20033;-71
2023/12/20 06:56:21;;;;;;;51.85;23.08;;;5.40;99.90;;;;;;5020115;28;20049;-70
2023/12/20 06:58:47;;;;;;;55.95;21.15;;;5.40;99.90;;;;;;5022210;28;20045;-71
2023/12/20 07:01:15;;;;;;;57.92;22.02;;;5.40;99.90;;;;;;5027890;28;20098;-71
2023/12/20 07:03:42;;;;;;;54.47;20.02;;;5.40;99.90;;;;;;5025001;28;20551;-72
2023/12/20 07:06:09;;;;;;;52.35;22.38;;;5.40;99.90;;;;;;5039716;28;20040;-71
2023/12/20 07:08:36;;;;;;;52.70;23.33;;;5.40;99.90;;;;;;5024604;28;20061;-71
2023/12/20 07:11:03;;;;;;;52.53;22.52;;;5.40;99.90;;;;;;5023766;28;20036;-72
2023/12/20 07:13:30;;;;;;;49.63;20.38;;;5.40;99.90;;;;;;5029813;28;20137;-71
2023/12/20 07:15:58;;;;;;;56.33;23.08;;;5.40;99.90;;;;;;5023582;28;20503;-70
2023/12/20 07:18:24;;;;;;;59.50;21.27;;;5.40;99.90;;;;;;5024238;28;20037;-72
2023/12/20 07:20:51;;;;;;;55.25;20.80;;;5.40;99.90;;;;;;5023185;28;20045;-72
2023/12/20 07:23:20;;;;;;;50.17;18.95;;;5.40;99.90;;;;;;5027169;28;20064;-72
2023/12/20 07:25:47;;;;;;;46.70;19.17;;;5.40;99.90;;;;;;5024076;28;20045;-75
2023/12/20 07:28:14;;;;;;;60.50;19.75;;;5.40;99.90;;;;;;5031469;28;20053;-73
2023/12/20 07:30:40;;;;;;;58.45;22.88;;;5.40;99.90;;;;;;5028598;28;20919;-72
2023/12/20 07:33:08;;;;;;;46.95;20.77;;;5.40;99.90;;;;;;5024655;28;20160;-74
2023/12/20 07:35:36;;;;;;;63.78;22.90;;;5.40;99.90;;;;;;5024550;28;20037;-74
2023/12/20 07:38:03;;;;;;;55.38;21.15;;;5.40;99.90;;;;;;5031008;28;20114;-74
2023/12/20 07:40:30;;;;;;;61.70;22.92;;;5.40;99.90;;;;;;5027208;28;20095;-74
2023/12/20 07:42:58;;;;;;;59.70;21.80;;;5.40;99.90;;;;;;5028637;28;20059;-73
2023/12/20 07:45:24;;;;;;;49.05;21.00;;;5.40;99.90;;;;;;5016182;28;20614;-74
2023/12/20 07:47:51;;;;;;;59.53;20.48;;;5.40;99.90;;;;;;5025456;28;20111;-73
2023/12/20 07:50:18;;;;;;;60.90;23.35;;;5.40;99.90;;;;;;5031051;28;20072;-74
2023/12/20 07:52:45;;;;;;;66.55;22.60;;;5.40;99.90;;;;;;5009366;28;20049;-73
2023/12/20 07:55:12;;;;;;;49.08;18.60;;;5.40;99.90;;;;;;5030494;28;20086;-74
2023/12/20 07:57:38;;;;;;;38.17;17.45;;;5.30;99.90;;;;;;5033197;28;20144;-72
2023/12/20 08:00:06;;;;;;;53.10;18.65;;;5.40;99.90;;;;;;5039577;28;21011;-72
2023/12/20 08:02:33;;;;;;;36.90;17.40;;;5.40;99.90;;;;;;5036674;28;20037;-72
2023/12/20 08:04:59;;;;;;;38.83;16.77;;;5.40;99.90;;;;;;5013739;28;20041;-73
2023/12/20 08:07:26;;;;;;;49.35;19.05;;;5.40;99.90;;;;;;5027237;28;20102;-73
2023/12/20 08:09:54;;;;;;;44.63;19.17;;;5.40;99.90;;;;;;5026692;28;20055;-73
2023/12/20 08:12:21;;;;;;;50.17;18.58;;;5.40;99.90;;;;;;5031074;28;20522;-73
2023/12/20 08:14:48;;;;;;;55.85;18.40;;;5.40;99.90;;;;;;4995007;28;20049;-73
2023/12/20 08:17:16;;;;;;;42.50;17.35;;;5.40;99.90;;;;;;5028499;28;20572;-73
2023/12/20 08:19:42;;;;;;;39.40;15.75;;;5.40;99.90;;;;;;5030473;28;20049;-75
2023/12/20 08:22:09;;;;;;;60.78;20.13;;;5.40;99.90;;;;;;5031844;28;20104;-74
2023/12/20 08:24:36;;;;;;;42.78;17.90;;;5.40;99.90;;;;;;5028917;28;20053;-75
2023/12/20 08:27:04;;;;;;;38.95;16.95;;;5.40;99.90;;;;;;5016094;28;20045;-74
2023/12/20 08:29:31;;;;;;;47.47;17.58;;;5.40;99.90;;;;;;5029526;28;20133;-74
2023/12/20 08:32:00;;;;;;;36.60;18.70;;;5.40;99.90;;;;;;5023624;28;22410;-75
2023/12/20 08:34:27;;;;;;;37.63;17.92;;;5.40;99.90;;;;;;5016099;28;20032;-75
2023/12/20 08:36:54;;;;;;;51.53;18.77;;;5.50;99.90;;;;;;5021167;28;20033;-76
2023/12/20 08:39:21;;;;;;;41.45;16.30;;;5.50;99.90;;;;;;5043509;28;20469;-76
2023/12/20 08:41:47;;;;;;;30.40;15.23;;;5.50;99.90;;;;;;5008738;28;20033;-77
2023/12/20 08:44:15;;;;;;;42.90;16.08;;;5.40;99.90;;;;;;5031124;28;20102;-76
2023/12/20 08:46:43;;;;;;;39.20;17.23;;;5.40;99.90;;;;;;5026651;28;20144;-76
2023/12/20 08:49:09;;;;;;;47.30;18.20;;;5.40;99.90;;;;;;5014252;28;20056;-76
2023/12/20 08:51:40;;;;;;;38.10;16.05;;;5.40;99.90;;;;;;5030805;28;20419;-75
2023/12/20 08:54:10;;;;;;;34.80;16.80;;;5.40;99.90;;;;;;5022266;28;22733;-75
2023/12/20 08:56:37;;;;;;;41.47;18.70;;;5.40;99.90;;;;;;5017367;28;20115;-75
2023/12/20 08:59:04;;;;;;;40.83;15.88;;;5.40;99.90;;;;;;5024736;28;20058;-75
2023/12/20 09:01:30;;;;;;;44.25;17.90;;;5.40;99.90;;;;;;5010209;28;20037;-76
2023/12/20 09:03:57;;;;;;;48.28;19.45;;;5.40;99.90;;;;;;5013242;28;20057;-75
2023/12/20 09:06:24;;;;;;;35.88;16.63;;;5.40;99.90;;;;;;5013932;28;20043;-75
2023/12/20 09:08:52;;;;;;;36.58;18.42;;;5.40;99.90;;;;;;5013643;28;20431;-74
2023/12/20 09:11:19;;;;;;;42.10;17.15;;;5.40;99.90;;;;;;5029693;28;20043;-76
2023/12/20 09:13:46;;;;;;;43.25;16.15;;;5.40;99.90;;;;;;5024076;28;20080;-74
2023/12/20 09:16:15;;;;;;;33.28;15.65;;;5.40;99.90;;;;;;5025367;28;20041;-74
2023/12/20 09:18:42;;;;;;;30.65;16.23;;;5.40;99.90;;;;;;5023461;28;20065;-73
2023/12/20 09:21:09;;;;;;;33.97;14.43;;;5.40;99.90;;;;;;5019128;28;20050;-75
2023/12/20 09:23:36;;;;;;;30.73;14.23;;;5.50;99.90;;;;;;5026965;28;20041;-74
2023/12/20 09:26:04;;;;;;;41.00;15.23;;;5.50;99.90;;;;;;5025340;28;20045;-75
2023/12/20 09:28:32;;;;;;;32.30;16.00;;;5.50;99.90;;;;;;5022143;28;20060;-75
2023/12/20 09:30:59;;;;;;;42.22;17.35;;;5.60;99.90;;;;;;5020205;28;20144;-75
2023/12/20 09:33:26;;;;;;;37.22;15.40;;;5.60;99.90;;;;;;5024175;28;20049;-75
2023/12/20 09:35:53;;;;;;;32.17;15.55;;;5.50;99.90;;;;;;5029554;28;20048;-73
2023/12/20 09:38:21;;;;;;;33.28;16.52;;;5.50;99.90;;;;;;5031367;28;20049;-74
2023/12/20 09:40:48;;;;;;;35.25;19.17;;;5.50;99.90;;;;;;5022406;28;20048;-74
2023/12/20 09:43:18;;;;;;;27.45;16.92;;;5.50;99.90;;;;;;5021316;28;20078;-75
2023/12/20 09:45:47;;;;;;;40.97;17.65;;;5.60;99.90;;;;;;5017880;28;20048;-74
2023/12/20 09:48:20;;;;;;;24.88;14.43;;;5.60;99.90;;;;;;5024450;28;20156;-76
2023/12/20 09:50:50;;;;;;;30.50;18.35;;;5.60;99.90;;;;;;5027884;28;20033;-76
2023/12/20 09:53:23;;;;;;;43.83;18.05;;;5.60;99.90;;;;;;5024964;28;20112;-76
2023/12/20 09:55:52;;;;;;;36.25;16.27;;;5.60;99.90;;;;;;5009192;28;20195;-75
2023/12/20 09:58:19;;;;;;;36.97;17.48;;;5.60;99.90;;;;;;5025192;28;20098;-76
2023/12/20 10:00:46;;;;;;;40.25;18.17;;;5.50;99.90;;;;;;5022835;28;20037;-75
2023/12/20 10:03:14;;;;;;;34.25;16.00;;;5.60;99.90;;;;;;5023794;28;20037;-75
2023/12/20 10:05:44;;;;;;;43.67;19.48;;;5.60;99.90;;;;;;5023466;28;20042;-77
2023/12/20 10:08:12;;;;;;;36.70;16.40;;;5.70;99.90;;;;;;5020304;28;20045;-75
2023/12/20 10:10:39;;;;;;;40.65;18.15;;;5.70;99.90;;;;;;5026002;28;20049;-75
2023/12/20 10:13:15;;;;;;;31.73;14.32;;;5.70;99.90;;;;;;5019788;28;20124;-76
2023/12/20 10:15:42;;;;;;;39.13;15.63;;;5.60;99.90;;;;;;5005029;28;20045;-75
2023/12/20 10:18:10;;;;;;;32.72;15.88;;;5.70;99.90;;;;;;5020067;28;20676;-76
2023/12/20 10:20:40;;;;;;;32.83;16.05;;;5.70;99.90;;;;;;5004744;28;20714;-75
2023/12/20 10:23:07;;;;;;;44.97;18.17;;;5.70;99.90;;;;;;5019640;28;20060;-75
2023/12/20 10:25:34;;;;;;;27.80;15.43;;;5.70;99.90;;;;;;5000022;28;20044;-75
2023/12/20 10:28:14;;;;;;;35.53;16.63;;;5.70;99.90;;;;;;4999554;28;20052;-75
2023/12/20 10:30:41;;;;;;;47.45;17.83;;;5.70;99.90;;;;;;5015999;28;20057;-76
2023/12/20 10:33:10;;;;;;;33.90;16.90;;;5.70;99.90;;;;;;5021604;28;20764;-76
2023/12/20 10:35:38;;;;;;;28.80;16.63;;;5.70;99.90;;;;;;5007450;28;20053;-74
2023/12/20 10:38:13;;;;;;;32.97;15.00;;;5.70;99.90;;;;;;5016416;28;20041;-75
2023/12/20 10:40:40;;;;;;;36.08;17.70;;;5.70;99.90;;;;;;5018383;28;20057;-76
2023/12/20 10:43:09;;;;;;;44.00;17.52;;;5.70;99.90;;;;;;5015399;28;20054;-76
2023/12/20 10:45:36;;;;;;;42.45;19.05;;;5.70;99.90;;;;;;5019647;28;20044;-75
2023/12/20 10:48:04;;;;;;;31.48;16.83;;;5.80;99.90;;;;;;4999896;28;20077;-78
2023/12/20 10:50:31;;;;;;;49.47;17.42;;;5.70;99.90;;;;;;5008264;28;20967;-78
2023/12/20 10:52:59;;;;;;;37.38;16.00;;;5.70;99.90;;;;;;5004784;28;20069;-74
2023/12/20 10:55:27;;;;;;;36.63;17.73;;;5.80;99.90;;;;;;5003797;28;21092;-76
2023/12/20 10:58:00;;;;;;;42.15;19.27;;;5.80;99.90;;;;;;5013539;28;20043;-75
2023/12/20 11:00:30;;;;;;;45.50;17.23;;;5.80;99.90;;;;;;5019878;28;20591;-77
2023/12/20 11:03:00;;;;;;;41.95;18.52;;;5.80;99.90;;;;;;5026287;28;20055;-75
2023/12/20 11:05:55;;;;;;;48.13;19.15;;;5.80;99.90;;;;;;5014277;28;20050;-76
2023/12/20 11:08:44;;;;;;;39.88;17.92;;;5.80;99.90;;;;;;5028477;28;20135;-76
2023/12/20 11:11:35;;;;;;;44.08;18.50;;;5.80;99.90;;;;;;5019648;28;20076;-75
2023/12/20 11:14:15;;;;;;;42.15;18.00;;;5.80;99.90;;;;;;5015566;28;20415;-76
2023/12/20 11:16:42;;;;;;;37.88;17.52;;;5.80;99.90;;;;;;5020859;28;20041;-76
2023/12/20 11:19:20;;;;;;;43.03;20.17;;;5.90;99.90;;;;;;5010738;28;20045;-76
2023/12/20 11:21:47;;;;;;;33.28;16.70;;;5.90;99.90;;;;;;5021271;28;20052;-75
2023/12/20 11:24:16;;;;;;;43.60;19.00;;;5.90;99.90;;;;;;5016164;28;20041;-76
2023/12/20 11:26:51;;;;;;;35.42;18.23;;;5.90;99.90;;;;;;5011339;28;20048;-76
2023/12/20 11:29:31;;;;;;;35.15;18.63;;;6.00;99.90;;;;;;5016776;28;20199;-74
2023/12/20 11:32:01;;;;;;;30.33;14.00;;;6.00;99.90;;;;;;4997081;28;20041;-74
2023/12/20 11:34:31;;;;;;;44.22;18.77;;;5.90;99.90;;;;;;4997044;28;20053;-74
2023/12/20 11:36:59;;;;;;;35.28;15.25;;;5.90;99.90;;;;;;5017505;28;20646;-75
2023/12/20 11:39:30;;;;;;;39.10;19.08;;;6.00;99.90;;;;;;5019384;28;20067;-76
2023/12/20 11:41:57;;;;;;;44.28;19.05;;;6.00;99.90;;;;;;5021278;28;20041;-75
2023/12/20 11:44:26;;;;;;;44.67;18.95;;;6.00;99.90;;;;;;5044157;28;20044;-74
2023/12/20 11:46:54;;;;;;;40.15;20.27;;;6.00;99.90;;;;;;5028076;28;20124;-76
2023/12/20 11:49:24;;;;;;;43.70;19.95;;;6.00;99.90;;;;;;5040156;28;20064;-74
2023/12/20 11:51:51;;;;;;;40.63;18.85;;;6.00;99.90;;;;;;5021315;28;20072;-74
2023/12/20 11:54:18;;;;;;;51.33;18.83;;;6.00;99.90;;;;;;5005125;28;20064;-74
2023/12/20 11:56:47;;;;;;;47.78;20.63;;;6.00;99.90;;;;;;5023352;28;20606;-75
2023/12/20 11:59:14;;;;;;;35.88;20.67;;;6.00;99.90;;;;;;5016472;28;21329;-76
2023/12/20 12:01:50;;;;;;;42.78;19.00;;;6.00;99.90;;;;;;5018240;28;20045;-74
2023/12/20 12:04:18;;;;;;;30.83;16.80;;;6.00;99.90;;;;;;5020991;28;21160;-74
2023/12/20 12:06:46;;;;;;;51.40;19.98;;;6.00;99.90;;;;;;5021603;28;20048;-76
2023/12/20 12:09:13;;;;;;;35.47;16.60;;;6.00;99.90;;;;;;4998515;28;20083;-77
2023/12/20 12:11:40;;;;;;;31.65;17.30;;;6.00;99.90;;;;;;5026951;28;20500;-79
2023/12/20 12:14:07;;;;;;;47.55;21.17;;;6.00;99.90;;;;;;5013780;28;20075;-80
2023/12/20 12:16:34;;;;;;;39.08;21.52;;;6.00;99.90;;;;;;5029274;28;21383;-77
2023/12/20 12:19:01;;;;;;;50.78;23.10;;;6.00;99.90;;;;;;5011250;28;20041;-78
2023/12/20 12:21:28;;;;;;;44.83;22.20;;;6.00;99.90;;;;;;5024042;28;20052;-75
2023/12/20 12:24:09;;;;;;;41.63;21.30;;;6.10;99.90;;;;;;5020630;28;20045;-73
2023/12/20 12:26:37;;;;;;;45.03;20.33;;;6.00;99.90;;;;;;5017500;28;20073;-73
2023/12/20 12:29:07;;;;;;;37.17;21.05;;;5.90;99.90;;;;;;5029117;28;20502;-75
2023/12/20 12:31:34;;;;;;;38.50;22.15;;;6.00;99.90;;;;;;5017880;28;20045;-75
2023/12/20 12:34:02;;;;;;;43.40;22.05;;;6.00;99.90;;;;;;5004409;28;20048;-75
2023/12/20 12:36:30;;;;;;;35.30;19.63;;;6.00;99.90;;;;;;5014093;28;20041;-75
2023/12/20 12:38:58;;;;;;;45.58;23.73;;;6.00;99.90;;;;;;5027245;28;20037;-74
2023/12/20 12:41:25;;;;;;;39.92;24.45;;;6.00;99.90;;;;;;5024040;28;20037;-74